KBUF/BUF METAR and TAF weather

Enter ICAO airport designator
Station Type Date Time Source
KBUF METAR 2018/04/19 12:54 UTC NOAA

KBUF 191254Z 34011KT 10SM -SN SCT025 OVC035 01/M03 A2984 RMK AO2 SNB02 SLP113 P0000 T00061033


Station Type Date Time Source
KBUF Decoded METAR 2018/04/19 12:54 UTC NOAA

GREATER BUFFALO INTERNATIONAL AIRPORT , NY, United States (KBUF) 42-56N 078-44W 225M
Apr 19, 2018 - 08:54 AM EDT / 2018.04.19 1254 UTC
Wind: from the NNW (340 degrees) at 13 MPH (11 KT):0
Visibility: 10 mile(s):0
Sky conditions: overcast
Weather: light snow
Precipitation last hour: A trace
Temperature: 33.1 F (0.6 C)
Windchill: 23 F (-5 C):1
Dew Point: 26.1 F (-3.3 C)
Relative Humidity: 75%
Pressure (altimeter): 29.84 in. Hg (1010 hPa)
ob: KBUF 191254Z 34011KT 10SM -SN SCT025 OVC035 01/M03 A2984 RMK AO2 SNB02 SLP113 P0000 T00061033
cycle: 13

Station Type Date Time Source
KBUF TAF 2018/04/19 12:22 UTC NOAA

TAF KBUF 191120Z 1912/2012 35010KT P6SM OVC015
FM191600 32011G18KT P6SM OVC020
FM192100 32015G25KT P6SM VCSH OVC025
FM200500 32011KT P6SM OVC020


Example: see airport list